This is the latest recevied weather packets stored in our database for station/object VK4RM-13. If no packets are shown the sender has not sent any weather packets the latest 10 day(s).
| Time | Temp. | Humidity | Pressure | Rain* | Wind** | Luminosity | Snow |
|---|---|---|---|---|---|---|---|
| 1777714006 | 18.33° C | 86% | 997 hPa | 0 mm | - | - | - |
| 1777713406 | 18.33° C | 85% | 996.9 hPa | 0 mm | - | - | - |
| 1777712806 | 18.89° C | 84% | 996.7 hPa | 0 mm | - | - | - |
| 1777712206 | 18.89° C | 83% | 996.5 hPa | 0 mm | - | - | - |
| 1777711607 | 19.44° C | 83% | 996.5 hPa | 0 mm | - | - | - |
| 1777711006 | 19.44° C | 83% | 996.4 hPa | 0 mm | - | - | - |
| 1777710406 | 19.44° C | 82% | 996.3 hPa | 0 mm | - | - | - |
| 1777709806 | 20° C | 80% | 996.2 hPa | 0 mm | - | - | - |
| 1777709207 | 20.56° C | 80% | 996.1 hPa | 0 mm | - | - | - |
| 1777708606 | 21.11° C | 78% | 996.1 hPa | 0 mm | - | - | - |
| 1777708006 | 21.11° C | 78% | 996 hPa | 0 mm | - | - | - |
| 1777707406 | 21.67° C | 76% | 996 hPa | 0 mm | - | - | - |
| 1777706806 | 22.22° C | 74% | 995.8 hPa | 0 mm | - | - | - |
| 1777706206 | 23.33° C | 70% | 995.8 hPa | 0 mm | - | - | - |
| 1777705606 | 23.89° C | 68% | 995.6 hPa | 0 mm | - | - | - |
| 1777705006 | 24.44° C | 63% | 995.5 hPa | 0 mm | - | - | - |
| 1777704407 | 25° C | 60% | 995.4 hPa | 0 mm | - | - | - |
| 1777703807 | 25.56° C | 58% | 995.4 hPa | 0 mm | - | - | - |
| 1777703207 | 26.11° C | 56% | 995.2 hPa | 0 mm | - | - | - |
| 1777702607 | 26.11° C | 55% | 995.1 hPa | 0 mm | - | - | - |
| 1777702007 | 26.67° C | 54% | 994.9 hPa | 0 mm | - | - | - |
| 1777701407 | 26.67° C | 54% | 995 hPa | 0 mm | - | - | - |
| 1777700807 | 26.67° C | 54% | 994.9 hPa | 0 mm | - | - | - |
| 1777700207 | 26.67° C | 54% | 994.9 hPa | 0 mm | - | - | - |
| 1777699607 | 26.67° C | 54% | 994.9 hPa | 0 mm | - | - | - |
* Rain latest hour (hover to see other rain measurements)
** Current wind speed in m/s (hover to see current wind gust speed)